sim
Sign-in with your pilot id or email,
or register
Callsign
Passwort

Schedule Details

Flight Number: OEO8938
Departure: Lyon Saint Exupery Airport (LFLL) at 16:55
Arrival: Munich Airport (EDDM) at 18:20

Weather Information
Getting current METAR information for LFLL 291500Z 35007KT 320V020 9999 FEW036 SCT200 BKN260 17/09 Q1019 NOSIG
Getting current METAR information for EDDM 291550Z 26008KT 230V290 9999 BKN014 12/09 Q1019 NOSIG

Schedule Frequency

Route Map